sensor_id;sensor_type;location;lat;lon;timestamp;P1;durP1;ratioP1;P2;durP2;ratioP2
38783;SDS011;24531;45.502;12.238;2022-08-01T00:01:43;5.82;;;3.80;;
38783;SDS011;24531;45.502;12.238;2022-08-01T00:04:09;8.55;;;3.85;;
38783;SDS011;24531;45.502;12.238;2022-08-01T00:06:34;5.45;;;3.63;;
38783;SDS011;24531;45.502;12.238;2022-08-01T00:09:00;5.00;;;3.40;;
38783;SDS011;24531;45.502;12.238;2022-08-01T00:11:26;6.28;;;3.20;;
38783;SDS011;24531;45.502;12.238;2022-08-01T00:13:51;8.60;;;3.53;;
38783;SDS011;24531;45.502;12.238;2022-08-01T00:16:17;5.38;;;3.80;;
38783;SDS011;24531;45.502;12.238;2022-08-01T00:18:43;7.88;;;3.88;;
38783;SDS011;24531;45.502;12.238;2022-08-01T00:21:09;6.05;;;4.82;;
38783;SDS011;24531;45.502;12.238;2022-08-01T00:23:35;5.55;;;4.15;;
38783;SDS011;24531;45.502;12.238;2022-08-01T00:26:01;8.05;;;4.30;;
38783;SDS011;24531;45.502;12.238;2022-08-01T00:28:27;4.60;;;3.72;;
38783;SDS011;24531;45.502;12.238;2022-08-01T00:30:52;7.68;;;3.80;;
38783;SDS011;24531;45.502;12.238;2022-08-01T00:33:18;5.38;;;4.18;;
38783;SDS011;24531;45.502;12.238;2022-08-01T00:35:44;6.85;;;3.85;;
38783;SDS011;24531;45.502;12.238;2022-08-01T00:38:09;5.10;;;3.90;;
38783;SDS011;24531;45.502;12.238;2022-08-01T00:40:36;9.98;;;4.22;;
38783;SDS011;24531;45.502;12.238;2022-08-01T00:43:02;6.03;;;4.13;;
38783;SDS011;24531;45.502;12.238;2022-08-01T00:45:28;6.35;;;4.85;;
38783;SDS011;24531;45.502;12.238;2022-08-01T00:47:53;7.53;;;4.18;;
38783;SDS011;24531;45.502;12.238;2022-08-01T00:50:19;8.60;;;4.45;;
38783;SDS011;24531;45.502;12.238;2022-08-01T00:52:44;5.15;;;3.85;;
38783;SDS011;24531;45.502;12.238;2022-08-01T00:55:10;10.77;;;5.07;;
38783;SDS011;24531;45.502;12.238;2022-08-01T00:57:37;4.53;;;3.63;;
38783;SDS011;24531;45.502;12.238;2022-08-01T01:00:04;9.25;;;4.18;;
38783;SDS011;24531;45.502;12.238;2022-08-01T01:02:31;6.30;;;4.00;;
38783;SDS011;24531;45.502;12.238;2022-08-01T01:04:57;6.78;;;3.85;;
38783;SDS011;24531;45.502;12.238;2022-08-01T01:07:34;7.05;;;3.67;;
38783;SDS011;24531;45.502;12.238;2022-08-01T01:12:54;5.15;;;4.10;;
38783;SDS011;24531;45.502;12.238;2022-08-01T01:15:40;5.85;;;4.15;;
38783;SDS011;24531;45.502;12.238;2022-08-01T01:18:11;7.00;;;4.80;;
38783;SDS011;24531;45.502;12.238;2022-08-01T01:20:56;7.43;;;4.60;;
38783;SDS011;24531;45.502;12.238;2022-08-01T01:26:26;8.52;;;4.68;;
38783;SDS011;24531;45.502;12.238;2022-08-01T01:34:15;5.95;;;4.88;;
38783;SDS011;24531;45.502;12.238;2022-08-01T01:36:44;6.40;;;5.03;;
38783;SDS011;24531;45.502;12.238;2022-08-01T01:39:12;8.27;;;5.53;;
38783;SDS011;24531;45.502;12.238;2022-08-01T01:41:39;7.78;;;5.38;;
38783;SDS011;24531;45.502;12.238;2022-08-01T01:44:06;6.18;;;5.40;;
38783;SDS011;24531;45.502;12.238;2022-08-01T01:46:34;6.63;;;5.68;;
38783;SDS011;24531;45.502;12.238;2022-08-01T01:49:01;7.03;;;6.32;;
38783;SDS011;24531;45.502;12.238;2022-08-01T01:51:28;7.88;;;5.80;;
38783;SDS011;24531;45.502;12.238;2022-08-01T01:53:55;7.50;;;6.07;;
38783;SDS011;24531;45.502;12.238;2022-08-01T01:56:21;8.40;;;5.60;;
38783;SDS011;24531;45.502;12.238;2022-08-01T01:58:49;6.40;;;5.32;;
38783;SDS011;24531;45.502;12.238;2022-08-01T02:01:17;7.82;;;5.68;;
38783;SDS011;24531;45.502;12.238;2022-08-01T02:03:44;7.93;;;6.18;;
38783;SDS011;24531;45.502;12.238;2022-08-01T02:06:12;8.13;;;5.93;;
38783;SDS011;24531;45.502;12.238;2022-08-01T02:08:39;8.50;;;6.55;;
38783;SDS011;24531;45.502;12.238;2022-08-01T02:11:07;8.48;;;6.75;;
38783;SDS011;24531;45.502;12.238;2022-08-01T02:13:59;11.88;;;6.60;;
38783;SDS011;24531;45.502;12.238;2022-08-01T02:16:28;9.02;;;6.70;;
38783;SDS011;24531;45.502;12.238;2022-08-01T02:18:58;9.10;;;6.65;;
38783;SDS011;24531;45.502;12.238;2022-08-01T02:21:28;8.05;;;6.63;;
38783;SDS011;24531;45.502;12.238;2022-08-01T02:24:00;8.13;;;6.80;;
38783;SDS011;24531;45.502;12.238;2022-08-01T02:26:46;8.10;;;6.80;;
38783;SDS011;24531;45.502;12.238;2022-08-01T02:29:18;9.13;;;6.80;;
38783;SDS011;24531;45.502;12.238;2022-08-01T02:31:49;9.90;;;7.03;;
38783;SDS011;24531;45.502;12.238;2022-08-01T02:34:19;8.73;;;7.65;;
38783;SDS011;24531;45.502;12.238;2022-08-01T02:36:46;10.23;;;7.00;;
38783;SDS011;24531;45.502;12.238;2022-08-01T02:39:13;10.77;;;8.00;;
38783;SDS011;24531;45.502;12.238;2022-08-01T02:41:41;13.73;;;7.63;;
38783;SDS011;24531;45.502;12.238;2022-08-01T02:44:10;12.77;;;9.27;;
38783;SDS011;24531;45.502;12.238;2022-08-01T02:46:52;10.32;;;8.63;;
38783;SDS011;24531;45.502;12.238;2022-08-01T02:49:22;12.48;;;7.88;;
38783;SDS011;24531;45.502;12.238;2022-08-01T02:51:51;10.73;;;9.00;;
38783;SDS011;24531;45.502;12.238;2022-08-01T02:54:19;10.90;;;8.60;;
38783;SDS011;24531;45.502;12.238;2022-08-01T02:56:47;12.02;;;9.45;;
38783;SDS011;24531;45.502;12.238;2022-08-01T02:59:16;12.98;;;9.57;;
38783;SDS011;24531;45.502;12.238;2022-08-01T03:01:44;11.35;;;9.70;;
38783;SDS011;24531;45.502;12.238;2022-08-01T03:04:11;11.73;;;9.05;;
38783;SDS011;24531;45.502;12.238;2022-08-01T03:06:38;12.90;;;9.70;;
38783;SDS011;24531;45.502;12.238;2022-08-01T03:09:05;14.10;;;10.50;;
38783;SDS011;24531;45.502;12.238;2022-08-01T03:11:32;16.98;;;10.52;;
38783;SDS011;24531;45.502;12.238;2022-08-01T03:13:59;11.23;;;9.38;;
38783;SDS011;24531;45.502;12.238;2022-08-01T03:16:30;10.77;;;9.07;;
38783;SDS011;24531;45.502;12.238;2022-08-01T03:18:58;13.27;;;9.55;;
38783;SDS011;24531;45.502;12.238;2022-08-01T03:21:26;12.55;;;10.15;;
38783;SDS011;24531;45.502;12.238;2022-08-01T03:23:53;14.80;;;9.43;;
38783;SDS011;24531;45.502;12.238;2022-08-01T03:26:29;14.25;;;10.05;;
38783;SDS011;24531;45.502;12.238;2022-08-01T03:28:59;16.63;;;10.88;;
38783;SDS011;24531;45.502;12.238;2022-08-01T03:31:31;13.48;;;9.57;;
38783;SDS011;24531;45.502;12.238;2022-08-01T03:34:03;17.13;;;11.13;;
38783;SDS011;24531;45.502;12.238;2022-08-01T03:36:30;14.00;;;9.73;;
38783;SDS011;24531;45.502;12.238;2022-08-01T03:38:59;15.07;;;10.90;;
38783;SDS011;24531;45.502;12.238;2022-08-01T03:41:29;15.63;;;10.82;;
38783;SDS011;24531;45.502;12.238;2022-08-01T03:44:05;13.93;;;10.77;;
38783;SDS011;24531;45.502;12.238;2022-08-01T03:46:38;12.80;;;10.77;;
38783;SDS011;24531;45.502;12.238;2022-08-01T03:49:08;15.63;;;12.07;;
38783;SDS011;24531;45.502;12.238;2022-08-01T03:51:39;16.75;;;12.57;;
38783;SDS011;24531;45.502;12.238;2022-08-01T03:54:05;15.27;;;11.02;;
38783;SDS011;24531;45.502;12.238;2022-08-01T03:56:33;14.40;;;11.63;;
38783;SDS011;24531;45.502;12.238;2022-08-01T03:59:01;13.68;;;11.60;;
38783;SDS011;24531;45.502;12.238;2022-08-01T04:01:28;16.17;;;12.10;;
38783;SDS011;24531;45.502;12.238;2022-08-01T04:03:57;16.00;;;13.40;;
38783;SDS011;24531;45.502;12.238;2022-08-01T04:06:24;14.27;;;11.98;;
38783;SDS011;24531;45.502;12.238;2022-08-01T04:08:50;20.65;;;13.23;;
38783;SDS011;24531;45.502;12.238;2022-08-01T04:11:25;14.45;;;11.88;;
38783;SDS011;24531;45.502;12.238;2022-08-01T04:13:52;16.45;;;12.02;;
38783;SDS011;24531;45.502;12.238;2022-08-01T04:16:19;19.17;;;11.88;;
38783;SDS011;24531;45.502;12.238;2022-08-01T04:18:45;13.27;;;11.68;;
38783;SDS011;24531;45.502;12.238;2022-08-01T04:21:11;15.88;;;12.63;;
38783;SDS011;24531;45.502;12.238;2022-08-01T04:23:38;15.30;;;11.80;;
38783;SDS011;24531;45.502;12.238;2022-08-01T04:26:07;15.98;;;12.70;;
38783;SDS011;24531;45.502;12.238;2022-08-01T04:28:36;15.35;;;12.60;;
38783;SDS011;24531;45.502;12.238;2022-08-01T04:31:02;17.10;;;13.05;;
38783;SDS011;24531;45.502;12.238;2022-08-01T04:33:34;16.95;;;13.65;;
38783;SDS011;24531;45.502;12.238;2022-08-01T04:36:01;17.48;;;12.75;;
38783;SDS011;24531;45.502;12.238;2022-08-01T04:38:29;18.92;;;12.88;;
38783;SDS011;24531;45.502;12.238;2022-08-01T04:40:57;16.63;;;12.68;;
38783;SDS011;24531;45.502;12.238;2022-08-01T04:43:24;16.70;;;13.52;;
38783;SDS011;24531;45.502;12.238;2022-08-01T04:45:50;18.65;;;13.50;;
38783;SDS011;24531;45.502;12.238;2022-08-01T04:48:16;17.27;;;13.48;;
38783;SDS011;24531;45.502;12.238;2022-08-01T04:50:44;16.02;;;12.80;;
38783;SDS011;24531;45.502;12.238;2022-08-01T04:53:14;17.65;;;14.55;;
38783;SDS011;24531;45.502;12.238;2022-08-01T04:55:44;18.15;;;13.95;;
38783;SDS011;24531;45.502;12.238;2022-08-01T04:58:16;20.40;;;13.05;;
38783;SDS011;24531;45.502;12.238;2022-08-01T05:00:42;14.98;;;12.27;;
38783;SDS011;24531;45.502;12.238;2022-08-01T05:03:07;20.15;;;12.77;;
38783;SDS011;24531;45.502;12.238;2022-08-01T05:05:33;17.67;;;12.95;;
38783;SDS011;24531;45.502;12.238;2022-08-01T05:08:00;16.48;;;13.25;;
38783;SDS011;24531;45.502;12.238;2022-08-01T05:10:25;17.25;;;13.20;;
38783;SDS011;24531;45.502;12.238;2022-08-01T05:12:51;15.20;;;12.43;;
38783;SDS011;24531;45.502;12.238;2022-08-01T05:15:17;16.45;;;12.93;;
38783;SDS011;24531;45.502;12.238;2022-08-01T05:17:43;14.98;;;12.60;;
38783;SDS011;24531;45.502;12.238;2022-08-01T05:20:09;19.02;;;12.60;;
38783;SDS011;24531;45.502;12.238;2022-08-01T05:22:36;15.02;;;11.65;;
38783;SDS011;24531;45.502;12.238;2022-08-01T05:25:02;17.08;;;11.48;;
38783;SDS011;24531;45.502;12.238;2022-08-01T05:27:29;15.02;;;12.43;;
38783;SDS011;24531;45.502;12.238;2022-08-01T05:29:55;16.50;;;12.13;;
38783;SDS011;24531;45.502;12.238;2022-08-01T05:32:21;15.27;;;12.32;;
38783;SDS011;24531;45.502;12.238;2022-08-01T05:34:47;15.80;;;11.73;;
38783;SDS011;24531;45.502;12.238;2022-08-01T05:37:13;12.32;;;9.55;;
38783;SDS011;24531;45.502;12.238;2022-08-01T05:39:38;13.88;;;10.57;;
38783;SDS011;24531;45.502;12.238;2022-08-01T05:42:04;13.05;;;10.02;;
38783;SDS011;24531;45.502;12.238;2022-08-01T05:44:30;15.10;;;10.40;;
38783;SDS011;24531;45.502;12.238;2022-08-01T05:46:56;12.40;;;11.02;;
38783;SDS011;24531;45.502;12.238;2022-08-01T05:49:21;15.73;;;10.63;;
38783;SDS011;24531;45.502;12.238;2022-08-01T05:51:47;16.60;;;10.77;;
38783;SDS011;24531;45.502;12.238;2022-08-01T05:54:12;13.85;;;11.55;;
38783;SDS011;24531;45.502;12.238;2022-08-01T05:56:38;16.50;;;10.55;;
38783;SDS011;24531;45.502;12.238;2022-08-01T05:59:04;15.00;;;10.05;;
38783;SDS011;24531;45.502;12.238;2022-08-01T06:01:29;13.85;;;8.50;;
38783;SDS011;24531;45.502;12.238;2022-08-01T06:03:55;13.23;;;8.30;;
38783;SDS011;24531;45.502;12.238;2022-08-01T06:06:21;12.13;;;8.45;;
38783;SDS011;24531;45.502;12.238;2022-08-01T06:08:47;10.30;;;8.25;;
38783;SDS011;24531;45.502;12.238;2022-08-01T06:11:13;12.02;;;8.52;;
38783;SDS011;24531;45.502;12.238;2022-08-01T06:13:39;12.38;;;8.65;;
38783;SDS011;24531;45.502;12.238;2022-08-01T06:16:04;9.07;;;8.05;;
38783;SDS011;24531;45.502;12.238;2022-08-01T06:18:30;12.73;;;7.80;;
38783;SDS011;24531;45.502;12.238;2022-08-01T06:20:56;7.60;;;6.53;;
38783;SDS011;24531;45.502;12.238;2022-08-01T06:23:21;9.43;;;7.30;;
38783;SDS011;24531;45.502;12.238;2022-08-01T06:25:47;9.15;;;6.53;;
38783;SDS011;24531;45.502;12.238;2022-08-01T06:28:13;8.75;;;6.45;;
38783;SDS011;24531;45.502;12.238;2022-08-01T06:30:39;10.68;;;7.45;;
38783;SDS011;24531;45.502;12.238;2022-08-01T06:33:04;9.23;;;5.63;;
38783;SDS011;24531;45.502;12.238;2022-08-01T06:35:30;7.32;;;5.82;;
38783;SDS011;24531;45.502;12.238;2022-08-01T06:37:56;7.47;;;5.75;;
38783;SDS011;24531;45.502;12.238;2022-08-01T06:40:22;7.25;;;5.25;;
38783;SDS011;24531;45.502;12.238;2022-08-01T06:42:48;6.10;;;5.03;;
38783;SDS011;24531;45.502;12.238;2022-08-01T06:45:14;6.97;;;5.40;;
38783;SDS011;24531;45.502;12.238;2022-08-01T06:47:41;7.47;;;5.13;;
38783;SDS011;24531;45.502;12.238;2022-08-01T06:50:08;8.93;;;6.07;;
38783;SDS011;24531;45.502;12.238;2022-08-01T06:52:35;9.18;;;5.40;;
38783;SDS011;24531;45.502;12.238;2022-08-01T06:55:01;7.28;;;5.03;;
38783;SDS011;24531;45.502;12.238;2022-08-01T06:57:27;7.80;;;5.07;;
38783;SDS011;24531;45.502;12.238;2022-08-01T06:59:54;6.55;;;4.88;;
38783;SDS011;24531;45.502;12.238;2022-08-01T07:02:20;8.68;;;5.28;;
38783;SDS011;24531;45.502;12.238;2022-08-01T07:04:47;12.77;;;5.00;;
38783;SDS011;24531;45.502;12.238;2022-08-01T07:07:12;7.75;;;4.68;;
38783;SDS011;24531;45.502;12.238;2022-08-01T07:09:38;5.75;;;3.80;;
38783;SDS011;24531;45.502;12.238;2022-08-01T07:12:06;3.47;;;3.10;;
38783;SDS011;24531;45.502;12.238;2022-08-01T07:14:32;8.23;;;3.72;;
38783;SDS011;24531;45.502;12.238;2022-08-01T07:16:58;4.85;;;3.92;;
38783;SDS011;24531;45.502;12.238;2022-08-01T07:19:24;3.67;;;3.25;;
38783;SDS011;24531;45.502;12.238;2022-08-01T07:21:49;4.45;;;2.90;;
38783;SDS011;24531;45.502;12.238;2022-08-01T07:24:15;4.47;;;2.75;;
38783;SDS011;24531;45.502;12.238;2022-08-01T07:26:44;3.28;;;2.50;;
38783;SDS011;24531;45.502;12.238;2022-08-01T07:29:12;3.65;;;2.50;;
38783;SDS011;24531;45.502;12.238;2022-08-01T07:31:37;3.55;;;2.83;;
38783;SDS011;24531;45.502;12.238;2022-08-01T07:34:03;7.47;;;3.08;;
38783;SDS011;24531;45.502;12.238;2022-08-01T07:36:29;3.13;;;2.83;;
38783;SDS011;24531;45.502;12.238;2022-08-01T07:38:54;6.88;;;2.95;;
38783;SDS011;24531;45.502;12.238;2022-08-01T07:41:20;3.67;;;3.00;;
38783;SDS011;24531;45.502;12.238;2022-08-01T07:43:48;3.92;;;2.60;;
38783;SDS011;24531;45.502;12.238;2022-08-01T07:46:14;2.65;;;2.00;;
38783;SDS011;24531;45.502;12.238;2022-08-01T07:48:42;5.55;;;2.20;;
38783;SDS011;24531;45.502;12.238;2022-08-01T07:51:08;2.80;;;2.50;;
38783;SDS011;24531;45.502;12.238;2022-08-01T07:53:35;5.53;;;2.22;;
38783;SDS011;24531;45.502;12.238;2022-08-01T07:56:01;2.00;;;1.90;;
38783;SDS011;24531;45.502;12.238;2022-08-01T07:58:29;2.33;;;1.65;;
38783;SDS011;24531;45.502;12.238;2022-08-01T08:00:55;3.47;;;2.38;;
38783;SDS011;24531;45.502;12.238;2022-08-01T08:03:21;2.67;;;2.00;;
38783;SDS011;24531;45.502;12.238;2022-08-01T08:05:47;3.70;;;1.70;;
38783;SDS011;24531;45.502;12.238;2022-08-01T08:08:12;4.90;;;2.38;;
38783;SDS011;24531;45.502;12.238;2022-08-01T08:10:40;1.95;;;1.67;;
38783;SDS011;24531;45.502;12.238;2022-08-01T08:13:06;3.33;;;2.05;;
38783;SDS011;24531;45.502;12.238;2022-08-01T08:15:31;2.97;;;1.90;;
38783;SDS011;24531;45.502;12.238;2022-08-01T08:17:57;4.05;;;2.38;;
38783;SDS011;24531;45.502;12.238;2022-08-01T08:20:23;3.30;;;1.88;;
38783;SDS011;24531;45.502;12.238;2022-08-01T08:22:53;5.30;;;2.10;;
38783;SDS011;24531;45.502;12.238;2022-08-01T08:25:19;1.88;;;1.30;;
38783;SDS011;24531;45.502;12.238;2022-08-01T08:27:46;2.65;;;1.73;;
38783;SDS011;24531;45.502;12.238;2022-08-01T08:30:12;2.10;;;1.70;;
38783;SDS011;24531;45.502;12.238;2022-08-01T08:32:38;2.55;;;1.33;;
38783;SDS011;24531;45.502;12.238;2022-08-01T08:35:05;4.78;;;1.88;;
38783;SDS011;24531;45.502;12.238;2022-08-01T08:37:32;2.00;;;1.50;;
38783;SDS011;24531;45.502;12.238;2022-08-01T08:39:58;2.08;;;1.55;;
38783;SDS011;24531;45.502;12.238;2022-08-01T08:42:24;5.60;;;1.33;;
38783;SDS011;24531;45.502;12.238;2022-08-01T08:44:50;1.60;;;1.50;;
38783;SDS011;24531;45.502;12.238;2022-08-01T08:47:15;4.50;;;1.75;;
38783;SDS011;24531;45.502;12.238;2022-08-01T08:49:43;5.57;;;1.65;;
38783;SDS011;24531;45.502;12.238;2022-08-01T08:52:09;2.53;;;1.40;;
38783;SDS011;24531;45.502;12.238;2022-08-01T08:54:37;3.17;;;1.10;;
38783;SDS011;24531;45.502;12.238;2022-08-01T08:57:05;2.33;;;1.55;;
38783;SDS011;24531;45.502;12.238;2022-08-01T08:59:30;1.55;;;1.45;;
38783;SDS011;24531;45.502;12.238;2022-08-01T09:01:56;3.53;;;1.60;;
38783;SDS011;24531;45.502;12.238;2022-08-01T09:04:23;3.35;;;1.27;;
38783;SDS011;24531;45.502;12.238;2022-08-01T09:06:49;3.40;;;1.60;;
38783;SDS011;24531;45.502;12.238;2022-08-01T09:09:15;2.55;;;1.30;;
38783;SDS011;24531;45.502;12.238;2022-08-01T09:11:41;2.55;;;1.33;;
38783;SDS011;24531;45.502;12.238;2022-08-01T09:14:18;2.70;;;1.35;;
38783;SDS011;24531;45.502;12.238;2022-08-01T09:16:59;3.70;;;3.10;;
38783;SDS011;24531;45.502;12.238;2022-08-01T09:19:27;1.27;;;1.17;;
38783;SDS011;24531;45.502;12.238;2022-08-01T09:22:05;1.20;;;1.00;;
38783;SDS011;24531;45.502;12.238;2022-08-01T09:24:32;1.00;;;0.88;;
38783;SDS011;24531;45.502;12.238;2022-08-01T09:26:59;3.03;;;1.10;;
38783;SDS011;24531;45.502;12.238;2022-08-01T09:29:27;5.25;;;1.25;;
38783;SDS011;24531;45.502;12.238;2022-08-01T09:31:55;1.88;;;1.30;;
38783;SDS011;24531;45.502;12.238;2022-08-01T09:34:28;0.90;;;0.90;;
38783;SDS011;24531;45.502;12.238;2022-08-01T09:36:58;1.60;;;1.05;;
38783;SDS011;24531;45.502;12.238;2022-08-01T09:39:27;4.68;;;1.20;;
38783;SDS011;24531;45.502;12.238;2022-08-01T09:41:56;2.58;;;1.70;;
38783;SDS011;24531;45.502;12.238;2022-08-01T09:44:37;2.08;;;1.15;;
38783;SDS011;24531;45.502;12.238;2022-08-01T09:47:04;1.95;;;1.08;;
38783;SDS011;24531;45.502;12.238;2022-08-01T09:49:31;1.10;;;1.00;;
38783;SDS011;24531;45.502;12.238;2022-08-01T09:55:00;1.88;;;1.00;;
38783;SDS011;24531;45.502;12.238;2022-08-01T09:57:29;1.85;;;1.13;;
38783;SDS011;24531;45.502;12.238;2022-08-01T09:59:58;2.10;;;0.90;;
38783;SDS011;24531;45.502;12.238;2022-08-01T10:02:26;1.40;;;0.90;;
38783;SDS011;24531;45.502;12.238;2022-08-01T10:05:01;2.55;;;1.10;;
38783;SDS011;24531;45.502;12.238;2022-08-01T10:07:31;1.05;;;0.90;;
38783;SDS011;24531;45.502;12.238;2022-08-01T10:10:10;1.25;;;1.00;;
38783;SDS011;24531;45.502;12.238;2022-08-01T10:12:38;1.37;;;1.20;;
38783;SDS011;24531;45.502;12.238;2022-08-01T10:15:05;0.80;;;0.80;;
38783;SDS011;24531;45.502;12.238;2022-08-01T10:17:31;1.50;;;0.88;;
38783;SDS011;24531;45.502;12.238;2022-08-01T10:19:59;2.08;;;0.75;;
38783;SDS011;24531;45.502;12.238;2022-08-01T10:22:27;0.88;;;0.70;;
38783;SDS011;24531;45.502;12.238;2022-08-01T10:24:55;0.60;;;0.60;;
38783;SDS011;24531;45.502;12.238;2022-08-01T10:27:23;0.70;;;0.70;;
38783;SDS011;24531;45.502;12.238;2022-08-01T10:29:58;2.35;;;0.60;;
38783;SDS011;24531;45.502;12.238;2022-08-01T10:32:29;0.95;;;0.77;;
38783;SDS011;24531;45.502;12.238;2022-08-01T10:34:55;0.68;;;0.63;;
38783;SDS011;24531;45.502;12.238;2022-08-01T10:37:21;1.92;;;0.70;;
38783;SDS011;24531;45.502;12.238;2022-08-01T10:39:48;0.82;;;0.63;;
38783;SDS011;24531;45.502;12.238;2022-08-01T10:42:15;1.25;;;0.77;;
38783;SDS011;24531;45.502;12.238;2022-08-01T10:44:42;1.13;;;0.80;;
38783;SDS011;24531;45.502;12.238;2022-08-01T10:47:11;3.55;;;0.73;;
38783;SDS011;24531;45.502;12.238;2022-08-01T10:50:02;2.30;;;0.68;;
38783;SDS011;24531;45.502;12.238;2022-08-01T10:52:38;2.38;;;0.70;;
38783;SDS011;24531;45.502;12.238;2022-08-01T10:55:05;1.83;;;0.85;;
38783;SDS011;24531;45.502;12.238;2022-08-01T10:57:44;1.38;;;0.60;;
38783;SDS011;24531;45.502;12.238;2022-08-01T11:00:17;0.82;;;0.65;;
38783;SDS011;24531;45.502;12.238;2022-08-01T11:03:01;1.27;;;0.77;;
38783;SDS011;24531;45.502;12.238;2022-08-01T11:05:31;1.90;;;0.77;;
38783;SDS011;24531;45.502;12.238;2022-08-01T11:08:09;2.35;;;0.82;;
38783;SDS011;24531;45.502;12.238;2022-08-01T11:10:45;1.27;;;0.80;;
38783;SDS011;24531;45.502;12.238;2022-08-01T11:13:12;2.33;;;1.05;;
38783;SDS011;24531;45.502;12.238;2022-08-01T11:15:38;0.77;;;0.77;;
38783;SDS011;24531;45.502;12.238;2022-08-01T11:21:00;3.20;;;0.93;;
38783;SDS011;24531;45.502;12.238;2022-08-01T11:23:28;3.85;;;1.00;;
38783;SDS011;24531;45.502;12.238;2022-08-01T11:28:21;2.10;;;0.80;;
38783;SDS011;24531;45.502;12.238;2022-08-01T11:33:50;2.38;;;1.15;;
38783;SDS011;24531;45.502;12.238;2022-08-01T11:36:16;1.30;;;0.90;;
38783;SDS011;24531;45.502;12.238;2022-08-01T11:41:29;1.60;;;0.73;;
38783;SDS011;24531;45.502;12.238;2022-08-01T11:54:27;7.15;;;0.70;;
38783;SDS011;24531;45.502;12.238;2022-08-01T11:56:55;4.40;;;1.15;;
38783;SDS011;24531;45.502;12.238;2022-08-01T11:59:22;3.83;;;0.82;;
38783;SDS011;24531;45.502;12.238;2022-08-01T12:01:48;0.77;;;0.77;;
38783;SDS011;24531;45.502;12.238;2022-08-01T12:04:14;1.75;;;0.93;;
38783;SDS011;24531;45.502;12.238;2022-08-01T12:06:39;1.90;;;0.60;;
38783;SDS011;24531;45.502;12.238;2022-08-01T12:09:18;1.10;;;0.80;;
38783;SDS011;24531;45.502;12.238;2022-08-01T12:11:46;0.98;;;0.80;;
38783;SDS011;24531;45.502;12.238;2022-08-01T12:14:17;2.65;;;0.80;;
38783;SDS011;24531;45.502;12.238;2022-08-01T12:16:51;1.45;;;0.73;;
38783;SDS011;24531;45.502;12.238;2022-08-01T12:19:21;1.58;;;1.10;;
38783;SDS011;24531;45.502;12.238;2022-08-01T12:24:34;1.90;;;1.05;;
38783;SDS011;24531;45.502;12.238;2022-08-01T12:27:01;1.05;;;0.82;;
38783;SDS011;24531;45.502;12.238;2022-08-01T12:29:36;1.23;;;0.80;;
38783;SDS011;24531;45.502;12.238;2022-08-01T12:32:04;3.17;;;0.88;;
38783;SDS011;24531;45.502;12.238;2022-08-01T12:34:46;0.65;;;0.63;;
38783;SDS011;24531;45.502;12.238;2022-08-01T12:37:12;0.95;;;0.70;;
38783;SDS011;24531;45.502;12.238;2022-08-01T12:39:37;4.07;;;1.05;;
38783;SDS011;24531;45.502;12.238;2022-08-01T12:42:07;0.80;;;0.77;;
38783;SDS011;24531;45.502;12.238;2022-08-01T12:44:35;0.65;;;0.65;;
38783;SDS011;24531;45.502;12.238;2022-08-01T12:47:01;2.00;;;1.15;;
38783;SDS011;24531;45.502;12.238;2022-08-01T12:49:30;1.08;;;0.98;;
38783;SDS011;24531;45.502;12.238;2022-08-01T12:51:57;0.82;;;0.70;;
38783;SDS011;24531;45.502;12.238;2022-08-01T12:54:23;4.38;;;0.90;;
38783;SDS011;24531;45.502;12.238;2022-08-01T12:56:50;0.98;;;0.63;;
38783;SDS011;24531;45.502;12.238;2022-08-01T12:59:23;4.28;;;1.33;;
38783;SDS011;24531;45.502;12.238;2022-08-01T13:01:53;1.13;;;0.85;;
38783;SDS011;24531;45.502;12.238;2022-08-01T13:04:22;0.85;;;0.80;;
38783;SDS011;24531;45.502;12.238;2022-08-01T13:06:52;1.27;;;0.95;;
38783;SDS011;24531;45.502;12.238;2022-08-01T13:09:18;1.02;;;0.65;;
38783;SDS011;24531;45.502;12.238;2022-08-01T13:11:44;2.67;;;0.90;;
38783;SDS011;24531;45.502;12.238;2022-08-01T13:14:33;1.33;;;0.77;;
38783;SDS011;24531;45.502;12.238;2022-08-01T13:16:58;1.85;;;0.90;;
38783;SDS011;24531;45.502;12.238;2022-08-01T13:19:41;1.88;;;0.52;;
38783;SDS011;24531;45.502;12.238;2022-08-01T13:22:09;2.03;;;0.90;;
38783;SDS011;24531;45.502;12.238;2022-08-01T13:24:35;2.13;;;1.02;;
38783;SDS011;24531;45.502;12.238;2022-08-01T13:27:02;2.05;;;0.68;;
38783;SDS011;24531;45.502;12.238;2022-08-01T13:29:29;0.80;;;0.75;;
38783;SDS011;24531;45.502;12.238;2022-08-01T13:32:16;1.67;;;1.42;;
38783;SDS011;24531;45.502;12.238;2022-08-01T13:34:42;0.82;;;0.50;;
38783;SDS011;24531;45.502;12.238;2022-08-01T13:37:07;4.22;;;0.80;;
38783;SDS011;24531;45.502;12.238;2022-08-01T13:39:33;1.80;;;0.60;;
38783;SDS011;24531;45.502;12.238;2022-08-01T13:42:05;1.33;;;0.75;;
38783;SDS011;24531;45.502;12.238;2022-08-01T13:44:34;1.50;;;0.93;;
38783;SDS011;24531;45.502;12.238;2022-08-01T13:47:01;4.00;;;0.77;;
38783;SDS011;24531;45.502;12.238;2022-08-01T13:49:28;1.42;;;0.50;;
38783;SDS011;24531;45.502;12.238;2022-08-01T13:51:53;1.23;;;0.77;;
38783;SDS011;24531;45.502;12.238;2022-08-01T13:54:19;2.60;;;0.75;;
38783;SDS011;24531;45.502;12.238;2022-08-01T13:56:45;0.93;;;0.70;;
38783;SDS011;24531;45.502;12.238;2022-08-01T13:59:11;0.70;;;0.70;;
38783;SDS011;24531;45.502;12.238;2022-08-01T14:01:37;1.77;;;0.68;;
38783;SDS011;24531;45.502;12.238;2022-08-01T14:04:03;2.35;;;0.47;;
38783;SDS011;24531;45.502;12.238;2022-08-01T14:06:29;2.25;;;0.70;;
38783;SDS011;24531;45.502;12.238;2022-08-01T14:08:55;1.48;;;0.80;;
38783;SDS011;24531;45.502;12.238;2022-08-01T14:11:21;4.72;;;0.85;;
38783;SDS011;24531;45.502;12.238;2022-08-01T14:13:47;1.33;;;0.93;;
38783;SDS011;24531;45.502;12.238;2022-08-01T14:16:12;0.85;;;0.60;;
38783;SDS011;24531;45.502;12.238;2022-08-01T14:18:38;1.25;;;0.60;;
38783;SDS011;24531;45.502;12.238;2022-08-01T14:21:04;2.95;;;0.60;;
38783;SDS011;24531;45.502;12.238;2022-08-01T14:23:29;0.95;;;0.60;;
38783;SDS011;24531;45.502;12.238;2022-08-01T14:25:55;1.40;;;0.82;;
38783;SDS011;24531;45.502;12.238;2022-08-01T14:28:21;1.65;;;0.77;;
38783;SDS011;24531;45.502;12.238;2022-08-01T14:30:46;2.20;;;0.77;;
38783;SDS011;24531;45.502;12.238;2022-08-01T14:33:12;4.57;;;0.63;;
38783;SDS011;24531;45.502;12.238;2022-08-01T14:35:38;1.48;;;0.80;;
38783;SDS011;24531;45.502;12.238;2022-08-01T14:38:04;1.77;;;0.80;;
38783;SDS011;24531;45.502;12.238;2022-08-01T14:40:30;1.02;;;0.70;;
38783;SDS011;24531;45.502;12.238;2022-08-01T14:42:56;0.80;;;0.70;;
38783;SDS011;24531;45.502;12.238;2022-08-01T14:45:22;2.83;;;1.00;;
38783;SDS011;24531;45.502;12.238;2022-08-01T14:47:47;0.77;;;0.60;;
38783;SDS011;24531;45.502;12.238;2022-08-01T14:50:14;2.42;;;0.70;;
38783;SDS011;24531;45.502;12.238;2022-08-01T14:52:41;1.35;;;0.90;;
38783;SDS011;24531;45.502;12.238;2022-08-01T14:55:08;1.95;;;0.55;;
38783;SDS011;24531;45.502;12.238;2022-08-01T14:57:35;1.30;;;0.60;;
38783;SDS011;24531;45.502;12.238;2022-08-01T15:00:04;1.42;;;0.57;;
38783;SDS011;24531;45.502;12.238;2022-08-01T15:02:32;1.38;;;0.65;;
38783;SDS011;24531;45.502;12.238;2022-08-01T15:04:58;2.33;;;0.90;;
38783;SDS011;24531;45.502;12.238;2022-08-01T15:07:23;2.45;;;0.60;;
38783;SDS011;24531;45.502;12.238;2022-08-01T15:09:49;1.38;;;0.60;;
38783;SDS011;24531;45.502;12.238;2022-08-01T15:12:15;1.48;;;0.70;;